sensor_id;sensor_type;location;lat;lon;timestamp;P1;durP1;ratioP1;P2;durP2;ratioP2
16228;SDS011;8222;51.462;12.630;2023-02-26T00:01:15;1.20;;;0.70;;
16228;SDS011;8222;51.462;12.630;2023-02-26T00:03:52;1.77;;;0.80;;
16228;SDS011;8222;51.462;12.630;2023-02-26T00:06:20;1.88;;;1.10;;
16228;SDS011;8222;51.462;12.630;2023-02-26T00:08:46;1.30;;;0.90;;
16228;SDS011;8222;51.462;12.630;2023-02-26T00:11:12;1.20;;;0.90;;
16228;SDS011;8222;51.462;12.630;2023-02-26T00:13:39;1.38;;;0.80;;
16228;SDS011;8222;51.462;12.630;2023-02-26T00:18:57;1.00;;;0.90;;
16228;SDS011;8222;51.462;12.630;2023-02-26T00:21:25;1.45;;;1.00;;
16228;SDS011;8222;51.462;12.630;2023-02-26T00:23:52;1.95;;;1.15;;
16228;SDS011;8222;51.462;12.630;2023-02-26T00:26:18;1.50;;;0.80;;
16228;SDS011;8222;51.462;12.630;2023-02-26T00:28:45;1.63;;;0.88;;
16228;SDS011;8222;51.462;12.630;2023-02-26T00:31:13;1.15;;;0.75;;
16228;SDS011;8222;51.462;12.630;2023-02-26T00:33:39;2.72;;;1.00;;
16228;SDS011;8222;51.462;12.630;2023-02-26T00:36:13;1.10;;;0.70;;
16228;SDS011;8222;51.462;12.630;2023-02-26T00:41:44;2.30;;;1.00;;
16228;SDS011;8222;51.462;12.630;2023-02-26T00:44:12;2.60;;;1.00;;
16228;SDS011;8222;51.462;12.630;2023-02-26T00:46:46;1.23;;;0.70;;
16228;SDS011;8222;51.462;12.630;2023-02-26T00:52:28;0.63;;;0.63;;
16228;SDS011;8222;51.462;12.630;2023-02-26T00:55:02;1.43;;;1.00;;
16228;SDS011;8222;51.462;12.630;2023-02-26T00:57:30;1.67;;;1.23;;
16228;SDS011;8222;51.462;12.630;2023-02-26T00:59:56;0.93;;;0.77;;
16228;SDS011;8222;51.462;12.630;2023-02-26T01:02:22;1.33;;;0.65;;
16228;SDS011;8222;51.462;12.630;2023-02-26T01:04:48;2.22;;;0.93;;
16228;SDS011;8222;51.462;12.630;2023-02-26T01:07:16;1.33;;;1.05;;
16228;SDS011;8222;51.462;12.630;2023-02-26T01:09:46;1.70;;;0.85;;
16228;SDS011;8222;51.462;12.630;2023-02-26T01:12:12;2.15;;;1.15;;
16228;SDS011;8222;51.462;12.630;2023-02-26T01:14:38;1.33;;;1.05;;
16228;SDS011;8222;51.462;12.630;2023-02-26T01:17:24;3.05;;;1.50;;
16228;SDS011;8222;51.462;12.630;2023-02-26T01:20:03;3.17;;;0.90;;
16228;SDS011;8222;51.462;12.630;2023-02-26T01:28:14;1.90;;;0.85;;
16228;SDS011;8222;51.462;12.630;2023-02-26T01:30:40;1.35;;;1.13;;
16228;SDS011;8222;51.462;12.630;2023-02-26T01:35:41;1.02;;;0.90;;
16228;SDS011;8222;51.462;12.630;2023-02-26T01:41:11;1.48;;;1.20;;
16228;SDS011;8222;51.462;12.630;2023-02-26T01:47:00;2.73;;;1.40;;
16228;SDS011;8222;51.462;12.630;2023-02-26T01:49:30;1.88;;;1.08;;
16228;SDS011;8222;51.462;12.630;2023-02-26T01:54:28;1.10;;;1.10;;
16228;SDS011;8222;51.462;12.630;2023-02-26T01:56:58;2.20;;;0.80;;
16228;SDS011;8222;51.462;12.630;2023-02-26T01:59:29;2.67;;;1.30;;
16228;SDS011;8222;51.462;12.630;2023-02-26T02:02:01;1.50;;;0.85;;
16228;SDS011;8222;51.462;12.630;2023-02-26T02:04:30;3.50;;;1.10;;
16228;SDS011;8222;51.462;12.630;2023-02-26T02:06:58;1.23;;;0.95;;
16228;SDS011;8222;51.462;12.630;2023-02-26T02:09:24;1.50;;;1.35;;
16228;SDS011;8222;51.462;12.630;2023-02-26T02:23:10;3.95;;;1.13;;
16228;SDS011;8222;51.462;12.630;2023-02-26T02:28:34;2.08;;;0.80;;
16228;SDS011;8222;51.462;12.630;2023-02-26T02:33:43;2.25;;;1.05;;
16228;SDS011;8222;51.462;12.630;2023-02-26T02:36:16;2.53;;;1.30;;
16228;SDS011;8222;51.462;12.630;2023-02-26T02:38:50;2.63;;;1.00;;
16228;SDS011;8222;51.462;12.630;2023-02-26T02:41:25;2.85;;;1.20;;
16228;SDS011;8222;51.462;12.630;2023-02-26T02:44:13;1.47;;;1.13;;
16228;SDS011;8222;51.462;12.630;2023-02-26T02:46:42;1.50;;;0.90;;
16228;SDS011;8222;51.462;12.630;2023-02-26T02:52:09;1.20;;;0.95;;
16228;SDS011;8222;51.462;12.630;2023-02-26T02:54:50;1.75;;;1.10;;
16228;SDS011;8222;51.462;12.630;2023-02-26T02:57:44;3.72;;;1.52;;
16228;SDS011;8222;51.462;12.630;2023-02-26T03:00:12;1.58;;;1.30;;
16228;SDS011;8222;51.462;12.630;2023-02-26T03:05:41;3.37;;;1.47;;
16228;SDS011;8222;51.462;12.630;2023-02-26T03:08:08;1.77;;;0.93;;
16228;SDS011;8222;51.462;12.630;2023-02-26T03:10:36;1.55;;;1.20;;
16228;SDS011;8222;51.462;12.630;2023-02-26T03:13:02;2.80;;;1.30;;
16228;SDS011;8222;51.462;12.630;2023-02-26T03:15:41;1.73;;;1.40;;
16228;SDS011;8222;51.462;12.630;2023-02-26T03:18:30;1.80;;;1.35;;
16228;SDS011;8222;51.462;12.630;2023-02-26T03:21:38;1.20;;;1.10;;
16228;SDS011;8222;51.462;12.630;2023-02-26T03:27:30;1.52;;;1.40;;
16228;SDS011;8222;51.462;12.630;2023-02-26T03:32:54;2.63;;;1.17;;
16228;SDS011;8222;51.462;12.630;2023-02-26T03:35:29;2.72;;;1.45;;
16228;SDS011;8222;51.462;12.630;2023-02-26T03:38:01;1.88;;;1.25;;
16228;SDS011;8222;51.462;12.630;2023-02-26T03:40:36;1.20;;;1.02;;
16228;SDS011;8222;51.462;12.630;2023-02-26T03:43:17;1.83;;;1.23;;
16228;SDS011;8222;51.462;12.630;2023-02-26T03:45:44;1.58;;;1.13;;
16228;SDS011;8222;51.462;12.630;2023-02-26T03:48:14;3.85;;;1.20;;
16228;SDS011;8222;51.462;12.630;2023-02-26T03:50:48;2.10;;;1.20;;
16228;SDS011;8222;51.462;12.630;2023-02-26T03:53:26;2.10;;;1.17;;
16228;SDS011;8222;51.462;12.630;2023-02-26T03:58:28;3.10;;;1.15;;
16228;SDS011;8222;51.462;12.630;2023-02-26T04:01:02;2.50;;;1.40;;
16228;SDS011;8222;51.462;12.630;2023-02-26T04:06:37;1.65;;;1.55;;
16228;SDS011;8222;51.462;12.630;2023-02-26T04:09:04;1.15;;;1.05;;
16228;SDS011;8222;51.462;12.630;2023-02-26T04:11:30;1.80;;;1.40;;
16228;SDS011;8222;51.462;12.630;2023-02-26T04:13:58;1.63;;;1.30;;
16228;SDS011;8222;51.462;12.630;2023-02-26T04:16:23;1.53;;;1.10;;
16228;SDS011;8222;51.462;12.630;2023-02-26T04:18:49;2.55;;;1.45;;
16228;SDS011;8222;51.462;12.630;2023-02-26T04:21:15;1.90;;;1.30;;
16228;SDS011;8222;51.462;12.630;2023-02-26T04:23:44;1.70;;;1.50;;
16228;SDS011;8222;51.462;12.630;2023-02-26T04:26:12;2.60;;;1.30;;
16228;SDS011;8222;51.462;12.630;2023-02-26T04:28:38;2.73;;;1.40;;
16228;SDS011;8222;51.462;12.630;2023-02-26T04:31:04;2.10;;;1.20;;
16228;SDS011;8222;51.462;12.630;2023-02-26T04:33:31;2.40;;;1.27;;
16228;SDS011;8222;51.462;12.630;2023-02-26T04:35:57;1.20;;;1.10;;
16228;SDS011;8222;51.462;12.630;2023-02-26T04:38:24;1.70;;;1.10;;
16228;SDS011;8222;51.462;12.630;2023-02-26T04:40:49;2.93;;;1.30;;
16228;SDS011;8222;51.462;12.630;2023-02-26T04:43:15;2.17;;;1.40;;
16228;SDS011;8222;51.462;12.630;2023-02-26T04:45:44;1.45;;;1.00;;
16228;SDS011;8222;51.462;12.630;2023-02-26T04:48:11;3.73;;;1.57;;
16228;SDS011;8222;51.462;12.630;2023-02-26T04:50:38;1.10;;;0.90;;
16228;SDS011;8222;51.462;12.630;2023-02-26T04:53:04;2.37;;;1.27;;
16228;SDS011;8222;51.462;12.630;2023-02-26T04:55:30;1.98;;;1.13;;
16228;SDS011;8222;51.462;12.630;2023-02-26T04:57:57;1.42;;;1.20;;
16228;SDS011;8222;51.462;12.630;2023-02-26T05:00:23;1.90;;;1.15;;
16228;SDS011;8222;51.462;12.630;2023-02-26T05:02:49;2.25;;;1.45;;
16228;SDS011;8222;51.462;12.630;2023-02-26T05:05:15;2.50;;;1.33;;
16228;SDS011;8222;51.462;12.630;2023-02-26T05:07:41;2.70;;;1.20;;
16228;SDS011;8222;51.462;12.630;2023-02-26T05:10:07;2.60;;;1.35;;
16228;SDS011;8222;51.462;12.630;2023-02-26T05:12:33;2.97;;;1.25;;
16228;SDS011;8222;51.462;12.630;2023-02-26T05:14:59;1.05;;;0.80;;
16228;SDS011;8222;51.462;12.630;2023-02-26T05:17:27;1.83;;;1.10;;
16228;SDS011;8222;51.462;12.630;2023-02-26T05:19:53;2.03;;;1.00;;
16228;SDS011;8222;51.462;12.630;2023-02-26T05:22:18;1.50;;;1.20;;
16228;SDS011;8222;51.462;12.630;2023-02-26T05:24:46;2.90;;;1.23;;
16228;SDS011;8222;51.462;12.630;2023-02-26T05:27:14;2.93;;;1.50;;
16228;SDS011;8222;51.462;12.630;2023-02-26T05:29:40;1.70;;;1.00;;
16228;SDS011;8222;51.462;12.630;2023-02-26T05:32:09;3.08;;;1.05;;
16228;SDS011;8222;51.462;12.630;2023-02-26T05:34:35;3.13;;;1.20;;
16228;SDS011;8222;51.462;12.630;2023-02-26T05:37:03;1.30;;;0.93;;
16228;SDS011;8222;51.462;12.630;2023-02-26T05:39:29;1.90;;;1.20;;
16228;SDS011;8222;51.462;12.630;2023-02-26T05:41:54;1.07;;;0.97;;
16228;SDS011;8222;51.462;12.630;2023-02-26T05:44:21;2.13;;;1.20;;
16228;SDS011;8222;51.462;12.630;2023-02-26T05:46:48;0.82;;;0.77;;
16228;SDS011;8222;51.462;12.630;2023-02-26T05:49:14;1.70;;;0.87;;
16228;SDS011;8222;51.462;12.630;2023-02-26T05:51:40;1.93;;;1.30;;
16228;SDS011;8222;51.462;12.630;2023-02-26T05:54:07;2.45;;;1.15;;
16228;SDS011;8222;51.462;12.630;2023-02-26T05:56:33;1.80;;;1.30;;
16228;SDS011;8222;51.462;12.630;2023-02-26T05:59:01;1.70;;;0.88;;
16228;SDS011;8222;51.462;12.630;2023-02-26T06:01:27;1.90;;;1.00;;
16228;SDS011;8222;51.462;12.630;2023-02-26T06:03:53;2.90;;;0.90;;
16228;SDS011;8222;51.462;12.630;2023-02-26T06:06:19;1.95;;;1.10;;
16228;SDS011;8222;51.462;12.630;2023-02-26T06:08:46;1.85;;;1.10;;
16228;SDS011;8222;51.462;12.630;2023-02-26T06:11:12;1.95;;;1.17;;
16228;SDS011;8222;51.462;12.630;2023-02-26T06:13:38;2.42;;;0.95;;
16228;SDS011;8222;51.462;12.630;2023-02-26T06:16:04;2.20;;;1.00;;
16228;SDS011;8222;51.462;12.630;2023-02-26T06:18:30;0.80;;;0.80;;
16228;SDS011;8222;51.462;12.630;2023-02-26T06:20:57;2.80;;;0.85;;
16228;SDS011;8222;51.462;12.630;2023-02-26T06:23:25;1.25;;;0.93;;
16228;SDS011;8222;51.462;12.630;2023-02-26T06:25:51;3.38;;;0.95;;
16228;SDS011;8222;51.462;12.630;2023-02-26T06:28:18;2.20;;;0.70;;
16228;SDS011;8222;51.462;12.630;2023-02-26T06:30:44;1.75;;;1.15;;
16228;SDS011;8222;51.462;12.630;2023-02-26T06:33:11;1.63;;;0.80;;
16228;SDS011;8222;51.462;12.630;2023-02-26T06:35:37;2.43;;;0.90;;
16228;SDS011;8222;51.462;12.630;2023-02-26T06:38:03;1.67;;;1.15;;
16228;SDS011;8222;51.462;12.630;2023-02-26T06:40:29;1.57;;;0.80;;
16228;SDS011;8222;51.462;12.630;2023-02-26T06:42:56;2.95;;;1.15;;
16228;SDS011;8222;51.462;12.630;2023-02-26T06:45:22;1.20;;;0.90;;
16228;SDS011;8222;51.462;12.630;2023-02-26T06:47:49;3.10;;;1.30;;
16228;SDS011;8222;51.462;12.630;2023-02-26T06:50:15;1.90;;;1.00;;
16228;SDS011;8222;51.462;12.630;2023-02-26T06:52:43;1.40;;;0.95;;
16228;SDS011;8222;51.462;12.630;2023-02-26T06:55:08;3.17;;;1.10;;
16228;SDS011;8222;51.462;12.630;2023-02-26T06:57:35;3.60;;;1.20;;
16228;SDS011;8222;51.462;12.630;2023-02-26T07:00:03;1.60;;;1.10;;
16228;SDS011;8222;51.462;12.630;2023-02-26T07:02:30;2.50;;;1.10;;
16228;SDS011;8222;51.462;12.630;2023-02-26T07:04:56;1.58;;;1.08;;
16228;SDS011;8222;51.462;12.630;2023-02-26T07:07:21;1.20;;;0.80;;
16228;SDS011;8222;51.462;12.630;2023-02-26T07:09:47;2.73;;;0.67;;
16228;SDS011;8222;51.462;12.630;2023-02-26T07:12:13;1.80;;;0.60;;
16228;SDS011;8222;51.462;12.630;2023-02-26T07:14:41;1.03;;;0.80;;
16228;SDS011;8222;51.462;12.630;2023-02-26T07:17:07;2.17;;;0.80;;
16228;SDS011;8222;51.462;12.630;2023-02-26T07:19:34;1.10;;;0.73;;
16228;SDS011;8222;51.462;12.630;2023-02-26T07:21:59;0.90;;;0.60;;
16228;SDS011;8222;51.462;12.630;2023-02-26T07:24:25;1.30;;;0.80;;
16228;SDS011;8222;51.462;12.630;2023-02-26T07:26:53;1.58;;;0.70;;
16228;SDS011;8222;51.462;12.630;2023-02-26T07:29:18;0.97;;;0.70;;
16228;SDS011;8222;51.462;12.630;2023-02-26T07:31:44;3.45;;;0.70;;
16228;SDS011;8222;51.462;12.630;2023-02-26T07:34:09;1.23;;;0.80;;
16228;SDS011;8222;51.462;12.630;2023-02-26T07:36:35;3.13;;;0.70;;
16228;SDS011;8222;51.462;12.630;2023-02-26T07:39:03;2.65;;;0.95;;
16228;SDS011;8222;51.462;12.630;2023-02-26T07:41:30;0.95;;;0.70;;
16228;SDS011;8222;51.462;12.630;2023-02-26T07:43:56;1.90;;;0.98;;
16228;SDS011;8222;51.462;12.630;2023-02-26T07:46:22;3.58;;;0.85;;
16228;SDS011;8222;51.462;12.630;2023-02-26T07:48:47;2.10;;;1.00;;
16228;SDS011;8222;51.462;12.630;2023-02-26T07:51:13;1.83;;;0.90;;
16228;SDS011;8222;51.462;12.630;2023-02-26T07:53:39;1.63;;;0.90;;
16228;SDS011;8222;51.462;12.630;2023-02-26T07:56:04;1.33;;;0.90;;
16228;SDS011;8222;51.462;12.630;2023-02-26T07:58:30;2.13;;;1.02;;
16228;SDS011;8222;51.462;12.630;2023-02-26T08:00:57;1.30;;;0.82;;
16228;SDS011;8222;51.462;12.630;2023-02-26T08:03:23;2.60;;;1.15;;
16228;SDS011;8222;51.462;12.630;2023-02-26T08:05:48;1.53;;;0.80;;
16228;SDS011;8222;51.462;12.630;2023-02-26T08:08:16;2.97;;;0.82;;
16228;SDS011;8222;51.462;12.630;2023-02-26T08:10:42;2.50;;;1.33;;
16228;SDS011;8222;51.462;12.630;2023-02-26T08:13:07;7.93;;;2.23;;
16228;SDS011;8222;51.462;12.630;2023-02-26T08:15:33;4.03;;;2.83;;
16228;SDS011;8222;51.462;12.630;2023-02-26T08:17:59;4.00;;;1.80;;
16228;SDS011;8222;51.462;12.630;2023-02-26T08:20:24;5.23;;;2.87;;
16228;SDS011;8222;51.462;12.630;2023-02-26T08:22:50;4.15;;;2.67;;
16228;SDS011;8222;51.462;12.630;2023-02-26T08:25:17;5.17;;;2.77;;
16228;SDS011;8222;51.462;12.630;2023-02-26T08:27:43;3.77;;;1.93;;
16228;SDS011;8222;51.462;12.630;2023-02-26T08:30:09;3.63;;;1.17;;
16228;SDS011;8222;51.462;12.630;2023-02-26T08:32:36;2.17;;;1.67;;
16228;SDS011;8222;51.462;12.630;2023-02-26T08:35:04;1.55;;;0.88;;
16228;SDS011;8222;51.462;12.630;2023-02-26T08:37:30;1.98;;;1.27;;
16228;SDS011;8222;51.462;12.630;2023-02-26T08:39:56;1.03;;;0.93;;
16228;SDS011;8222;51.462;12.630;2023-02-26T08:42:23;1.17;;;0.75;;
16228;SDS011;8222;51.462;12.630;2023-02-26T08:44:49;1.80;;;0.80;;
16228;SDS011;8222;51.462;12.630;2023-02-26T08:47:16;1.63;;;0.80;;
16228;SDS011;8222;51.462;12.630;2023-02-26T08:49:42;1.90;;;1.50;;
16228;SDS011;8222;51.462;12.630;2023-02-26T08:52:08;1.70;;;1.00;;
16228;SDS011;8222;51.462;12.630;2023-02-26T08:54:33;2.27;;;1.20;;
16228;SDS011;8222;51.462;12.630;2023-02-26T08:56:59;2.00;;;0.98;;
16228;SDS011;8222;51.462;12.630;2023-02-26T08:59:25;2.72;;;1.25;;
16228;SDS011;8222;51.462;12.630;2023-02-26T09:01:50;2.83;;;1.27;;
16228;SDS011;8222;51.462;12.630;2023-02-26T09:04:18;1.55;;;1.02;;
16228;SDS011;8222;51.462;12.630;2023-02-26T09:06:44;2.22;;;1.20;;
16228;SDS011;8222;51.462;12.630;2023-02-26T09:09:09;1.70;;;0.83;;
16228;SDS011;8222;51.462;12.630;2023-02-26T09:11:35;1.70;;;0.80;;
16228;SDS011;8222;51.462;12.630;2023-02-26T09:14:02;2.58;;;0.90;;
16228;SDS011;8222;51.462;12.630;2023-02-26T09:16:28;1.27;;;0.75;;
16228;SDS011;8222;51.462;12.630;2023-02-26T09:18:55;1.30;;;0.70;;
16228;SDS011;8222;51.462;12.630;2023-02-26T09:21:23;1.85;;;1.10;;
16228;SDS011;8222;51.462;12.630;2023-02-26T09:23:49;3.17;;;1.33;;
16228;SDS011;8222;51.462;12.630;2023-02-26T09:26:15;2.40;;;1.20;;
16228;SDS011;8222;51.462;12.630;2023-02-26T09:28:43;2.25;;;1.60;;
16228;SDS011;8222;51.462;12.630;2023-02-26T09:31:08;1.40;;;1.20;;
16228;SDS011;8222;51.462;12.630;2023-02-26T09:33:34;2.92;;;1.35;;
16228;SDS011;8222;51.462;12.630;2023-02-26T09:36:00;2.20;;;1.40;;
16228;SDS011;8222;51.462;12.630;2023-02-26T09:38:26;1.80;;;1.70;;
16228;SDS011;8222;51.462;12.630;2023-02-26T09:40:57;1.67;;;1.48;;
16228;SDS011;8222;51.462;12.630;2023-02-26T09:46:17;1.88;;;1.17;;
16228;SDS011;8222;51.462;12.630;2023-02-26T09:49:21;1.67;;;1.17;;
16228;SDS011;8222;51.462;12.630;2023-02-26T09:51:53;2.25;;;1.20;;
16228;SDS011;8222;51.462;12.630;2023-02-26T09:54:23;2.70;;;1.60;;
16228;SDS011;8222;51.462;12.630;2023-02-26T09:56:52;1.30;;;1.00;;
16228;SDS011;8222;51.462;12.630;2023-02-26T09:59:20;1.90;;;0.90;;
16228;SDS011;8222;51.462;12.630;2023-02-26T10:07:44;2.30;;;0.85;;
16228;SDS011;8222;51.462;12.630;2023-02-26T10:10:18;1.70;;;0.88;;
16228;SDS011;8222;51.462;12.630;2023-02-26T10:12:45;1.50;;;0.75;;
16228;SDS011;8222;51.462;12.630;2023-02-26T10:15:14;1.63;;;0.93;;
16228;SDS011;8222;51.462;12.630;2023-02-26T10:20:56;1.05;;;0.90;;
16228;SDS011;8222;51.462;12.630;2023-02-26T10:23:45;2.97;;;0.90;;
16228;SDS011;8222;51.462;12.630;2023-02-26T10:28:50;1.63;;;0.80;;
16228;SDS011;8222;51.462;12.630;2023-02-26T10:39:45;1.95;;;1.05;;
16228;SDS011;8222;51.462;12.630;2023-02-26T10:42:31;1.52;;;0.80;;
16228;SDS011;8222;51.462;12.630;2023-02-26T10:51:18;1.08;;;0.90;;
16228;SDS011;8222;51.462;12.630;2023-02-26T10:53:52;0.90;;;0.70;;
16228;SDS011;8222;51.462;12.630;2023-02-26T10:56:31;1.63;;;0.77;;
16228;SDS011;8222;51.462;12.630;2023-02-26T10:58:58;2.45;;;1.08;;
16228;SDS011;8222;51.462;12.630;2023-02-26T11:01:28;2.25;;;0.90;;
16228;SDS011;8222;51.462;12.630;2023-02-26T11:03:55;0.97;;;0.80;;
16228;SDS011;8222;51.462;12.630;2023-02-26T11:06:31;1.00;;;0.60;;
16228;SDS011;8222;51.462;12.630;2023-02-26T11:08:59;1.25;;;0.70;;
16228;SDS011;8222;51.462;12.630;2023-02-26T11:14:42;1.03;;;0.93;;
16228;SDS011;8222;51.462;12.630;2023-02-26T11:17:10;1.10;;;0.70;;
16228;SDS011;8222;51.462;12.630;2023-02-26T11:19:50;2.10;;;1.10;;
16228;SDS011;8222;51.462;12.630;2023-02-26T11:22:21;1.38;;;1.17;;
16228;SDS011;8222;51.462;12.630;2023-02-26T11:24:49;1.52;;;0.70;;
16228;SDS011;8222;51.462;12.630;2023-02-26T11:27:20;0.95;;;0.63;;
16228;SDS011;8222;51.462;12.630;2023-02-26T11:29:57;1.08;;;0.85;;
16228;SDS011;8222;51.462;12.630;2023-02-26T11:32:33;1.30;;;0.60;;
16228;SDS011;8222;51.462;12.630;2023-02-26T11:35:02;2.10;;;0.70;;
16228;SDS011;8222;51.462;12.630;2023-02-26T11:37:36;2.28;;;1.05;;
16228;SDS011;8222;51.462;12.630;2023-02-26T11:40:17;0.90;;;0.77;;
16228;SDS011;8222;51.462;12.630;2023-02-26T11:42:51;1.77;;;0.90;;
16228;SDS011;8222;51.462;12.630;2023-02-26T11:45:22;1.50;;;0.90;;
16228;SDS011;8222;51.462;12.630;2023-02-26T11:47:48;3.00;;;0.90;;
16228;SDS011;8222;51.462;12.630;2023-02-26T11:50:23;1.90;;;0.50;;
16228;SDS011;8222;51.462;12.630;2023-02-26T11:52:56;0.60;;;0.53;;
16228;SDS011;8222;51.462;12.630;2023-02-26T11:55:31;2.10;;;0.82;;
16228;SDS011;8222;51.462;12.630;2023-02-26T11:58:01;2.38;;;1.17;;
16228;SDS011;8222;51.462;12.630;2023-02-26T12:00:40;2.40;;;0.95;;
16228;SDS011;8222;51.462;12.630;2023-02-26T12:03:06;0.75;;;0.68;;
16228;SDS011;8222;51.462;12.630;2023-02-26T12:05:39;1.75;;;1.10;;
16228;SDS011;8222;51.462;12.630;2023-02-26T12:08:17;1.30;;;0.75;;
16228;SDS011;8222;51.462;12.630;2023-02-26T12:10:59;0.95;;;0.73;;
16228;SDS011;8222;51.462;12.630;2023-02-26T12:22:21;2.20;;;1.47;;
16228;SDS011;8222;51.462;12.630;2023-02-26T12:31:20;1.77;;;0.47;;
16228;SDS011;8222;51.462;12.630;2023-02-26T12:47:40;2.00;;;0.70;;
16228;SDS011;8222;51.462;12.630;2023-02-26T12:53:35;0.90;;;0.50;;
16228;SDS011;8222;51.462;12.630;2023-02-26T13:15:52;1.15;;;0.50;;
16228;SDS011;8222;51.462;12.630;2023-02-26T13:21:24;0.40;;;0.40;;
16228;SDS011;8222;51.462;12.630;2023-02-26T13:24:01;0.82;;;0.63;;
16228;SDS011;8222;51.462;12.630;2023-02-26T13:26:31;0.90;;;0.50;;
16228;SDS011;8222;51.462;12.630;2023-02-26T13:29:02;0.75;;;0.57;;
16228;SDS011;8222;51.462;12.630;2023-02-26T13:34:28;1.67;;;0.88;;
16228;SDS011;8222;51.462;12.630;2023-02-26T13:37:04;3.37;;;1.37;;
16228;SDS011;8222;51.462;12.630;2023-02-26T13:45:06;1.97;;;1.33;;
16228;SDS011;8222;51.462;12.630;2023-02-26T13:47:50;2.50;;;1.55;;
16228;SDS011;8222;51.462;12.630;2023-02-26T14:04:22;1.27;;;0.70;;
16228;SDS011;8222;51.462;12.630;2023-02-26T14:07:05;1.52;;;0.80;;
16228;SDS011;8222;51.462;12.630;2023-02-26T14:17:49;0.85;;;0.80;;
16228;SDS011;8222;51.462;12.630;2023-02-26T14:20:27;0.90;;;0.60;;
16228;SDS011;8222;51.462;12.630;2023-02-26T14:23:11;0.88;;;0.65;;
16228;SDS011;8222;51.462;12.630;2023-02-26T14:25:48;2.47;;;0.82;;
16228;SDS011;8222;51.462;12.630;2023-02-26T14:30:52;0.90;;;0.60;;
16228;SDS011;8222;51.462;12.630;2023-02-26T14:33:28;1.73;;;0.70;;
16228;SDS011;8222;51.462;12.630;2023-02-26T14:35:55;3.43;;;1.20;;
16228;SDS011;8222;51.462;12.630;2023-02-26T14:38:29;0.70;;;0.70;;
16228;SDS011;8222;51.462;12.630;2023-02-26T14:41:05;2.08;;;1.33;;
16228;SDS011;8222;51.462;12.630;2023-02-26T14:43:50;1.80;;;1.30;;
16228;SDS011;8222;51.462;12.630;2023-02-26T14:46:26;1.15;;;0.80;;
16228;SDS011;8222;51.462;12.630;2023-02-26T14:48:53;1.10;;;0.70;;
16228;SDS011;8222;51.462;12.630;2023-02-26T14:51:22;1.38;;;0.65;;
16228;SDS011;8222;51.462;12.630;2023-02-26T15:04:52;2.17;;;1.42;;
16228;SDS011;8222;51.462;12.630;2023-02-26T15:07:40;1.70;;;1.17;;
16228;SDS011;8222;51.462;12.630;2023-02-26T15:15:55;1.25;;;0.73;;
16228;SDS011;8222;51.462;12.630;2023-02-26T15:18:43;1.17;;;0.60;;
16228;SDS011;8222;51.462;12.630;2023-02-26T15:21:19;2.05;;;0.70;;
16228;SDS011;8222;51.462;12.630;2023-02-26T15:23:53;1.83;;;0.90;;
16228;SDS011;8222;51.462;12.630;2023-02-26T15:26:25;1.42;;;0.70;;
16228;SDS011;8222;51.462;12.630;2023-02-26T15:28:53;2.55;;;1.80;;
16228;SDS011;8222;51.462;12.630;2023-02-26T15:31:26;1.83;;;1.00;;
16228;SDS011;8222;51.462;12.630;2023-02-26T15:33:57;1.42;;;0.70;;
16228;SDS011;8222;51.462;12.630;2023-02-26T15:36:23;4.72;;;2.90;;
16228;SDS011;8222;51.462;12.630;2023-02-26T15:38:54;1.67;;;1.37;;
16228;SDS011;8222;51.462;12.630;2023-02-26T15:41:22;0.95;;;0.82;;
16228;SDS011;8222;51.462;12.630;2023-02-26T15:44:01;2.20;;;1.30;;
16228;SDS011;8222;51.462;12.630;2023-02-26T15:46:32;1.30;;;1.10;;
16228;SDS011;8222;51.462;12.630;2023-02-26T15:49:10;1.50;;;1.20;;
16228;SDS011;8222;51.462;12.630;2023-02-26T15:51:42;1.67;;;1.42;;
16228;SDS011;8222;51.462;12.630;2023-02-26T15:54:13;1.47;;;1.27;;
16228;SDS011;8222;51.462;12.630;2023-02-26T15:56:43;3.90;;;2.55;;
16228;SDS011;8222;51.462;12.630;2023-02-26T15:59:22;1.52;;;0.88;;
16228;SDS011;8222;51.462;12.630;2023-02-26T16:01:51;2.63;;;1.40;;
16228;SDS011;8222;51.462;12.630;2023-02-26T16:04:20;1.90;;;1.00;;
16228;SDS011;8222;51.462;12.630;2023-02-26T16:06:47;1.27;;;1.20;;
16228;SDS011;8222;51.462;12.630;2023-02-26T16:09:18;1.47;;;0.97;;
16228;SDS011;8222;51.462;12.630;2023-02-26T16:11:43;3.78;;;1.10;;
16228;SDS011;8222;51.462;12.630;2023-02-26T16:14:17;2.47;;;1.33;;
16228;SDS011;8222;51.462;12.630;2023-02-26T16:16:54;1.67;;;1.17;;
16228;SDS011;8222;51.462;12.630;2023-02-26T16:19:32;1.30;;;0.93;;
16228;SDS011;8222;51.462;12.630;2023-02-26T16:22:17;1.83;;;1.35;;
16228;SDS011;8222;51.462;12.630;2023-02-26T16:24:53;1.65;;;1.20;;
16228;SDS011;8222;51.462;12.630;2023-02-26T16:27:23;1.10;;;1.00;;
16228;SDS011;8222;51.462;12.630;2023-02-26T16:29:52;2.35;;;1.02;;
16228;SDS011;8222;51.462;12.630;2023-02-26T16:32:22;2.45;;;1.15;;
16228;SDS011;8222;51.462;12.630;2023-02-26T16:34:51;0.90;;;0.90;;
16228;SDS011;8222;51.462;12.630;2023-02-26T16:37:52;1.52;;;1.00;;
16228;SDS011;8222;51.462;12.630;2023-02-26T16:43:01;1.30;;;0.88;;
16228;SDS011;8222;51.462;12.630;2023-02-26T16:48:05;2.25;;;1.33;;
16228;SDS011;8222;51.462;12.630;2023-02-26T16:50:39;2.42;;;0.95;;
16228;SDS011;8222;51.462;12.630;2023-02-26T16:55:34;1.30;;;1.00;;
16228;SDS011;8222;51.462;12.630;2023-02-26T16:58:02;3.90;;;1.87;;
16228;SDS011;8222;51.462;12.630;2023-02-26T17:00:32;2.95;;;2.38;;
16228;SDS011;8222;51.462;12.630;2023-02-26T17:03:08;2.63;;;1.20;;
16228;SDS011;8222;51.462;12.630;2023-02-26T17:05:58;2.50;;;1.42;;
16228;SDS011;8222;51.462;12.630;2023-02-26T17:08:52;1.25;;;0.88;;
16228;SDS011;8222;51.462;12.630;2023-02-26T17:16:46;1.55;;;1.25;;
16228;SDS011;8222;51.462;12.630;2023-02-26T17:19:14;4.18;;;1.80;;
16228;SDS011;8222;51.462;12.630;2023-02-26T17:21:44;2.20;;;2.00;;
16228;SDS011;8222;51.462;12.630;2023-02-26T17:24:17;3.42;;;1.67;;
16228;SDS011;8222;51.462;12.630;2023-02-26T17:27:09;2.40;;;2.10;;
16228;SDS011;8222;51.462;12.630;2023-02-26T17:29:43;3.88;;;1.85;;
16228;SDS011;8222;51.462;12.630;2023-02-26T17:32:20;3.03;;;1.75;;
16228;SDS011;8222;51.462;12.630;2023-02-26T17:34:48;3.53;;;1.90;;
16228;SDS011;8222;51.462;12.630;2023-02-26T17:37:16;2.88;;;1.60;;
16228;SDS011;8222;51.462;12.630;2023-02-26T17:39:43;5.32;;;2.67;;
16228;SDS011;8222;51.462;12.630;2023-02-26T17:42:10;7.05;;;3.10;;
16228;SDS011;8222;51.462;12.630;2023-02-26T17:44:47;10.70;;;4.20;;
16228;SDS011;8222;51.462;12.630;2023-02-26T17:47:14;10.48;;;4.88;;
16228;SDS011;8222;51.462;12.630;2023-02-26T17:49:41;9.20;;;4.43;;
16228;SDS011;8222;51.462;12.630;2023-02-26T17:52:07;6.30;;;2.85;;
16228;SDS011;8222;51.462;12.630;2023-02-26T17:54:33;6.43;;;2.10;;
16228;SDS011;8222;51.462;12.630;2023-02-26T17:56:58;2.83;;;1.30;;
16228;SDS011;8222;51.462;12.630;2023-02-26T17:59:24;3.15;;;1.25;;
16228;SDS011;8222;51.462;12.630;2023-02-26T18:01:52;5.07;;;2.47;;
16228;SDS011;8222;51.462;12.630;2023-02-26T18:04:18;4.72;;;2.08;;
16228;SDS011;8222;51.462;12.630;2023-02-26T18:06:43;20.73;;;15.03;;
16228;SDS011;8222;51.462;12.630;2023-02-26T18:09:10;15.37;;;12.60;;
16228;SDS011;8222;51.462;12.630;2023-02-26T18:11:37;10.30;;;8.88;;
16228;SDS011;8222;51.462;12.630;2023-02-26T18:14:03;5.70;;;4.90;;
16228;SDS011;8222;51.462;12.630;2023-02-26T18:16:34;3.40;;;3.20;;
16228;SDS011;8222;51.462;12.630;2023-02-26T18:19:02;6.30;;;5.70;;
16228;SDS011;8222;51.462;12.630;2023-02-26T18:21:29;4.63;;;4.22;;
16228;SDS011;8222;51.462;12.630;2023-02-26T18:23:57;4.47;;;3.95;;
16228;SDS011;8222;51.462;12.630;2023-02-26T18:26:25;5.55;;;5.05;;
16228;SDS011;8222;51.462;12.630;2023-02-26T18:28:54;3.60;;;3.30;;
16228;SDS011;8222;51.462;12.630;2023-02-26T18:31:21;3.58;;;2.95;;
16228;SDS011;8222;51.462;12.630;2023-02-26T18:33:51;3.67;;;2.25;;
16228;SDS011;8222;51.462;12.630;2023-02-26T18:36:29;3.55;;;3.10;;